Time;durP1;ratioP1;P1;durP2;ratioP2;P2;SDS_P1;SDS_P2;PMS_P1;PMS_P2;Temp;Humidity;BMP_temperature;BMP_pressure;BME280_temperature;BME280_humidity;BME280_pressure;Samples;Min_cycle;Max_cycle;Signal;HPM_P1;HPM_P2
2022/01/30 00:01:51;;;;;;;13.57;1.75;;;;;;;8.59;88.82;102113.44;5070785;28;20048;-75
2022/01/30 00:04:18;;;;;;;24.23;3.88;;;;;;;8.59;88.77;102096.88;5070399;28;20540;-75
2022/01/30 00:06:44;;;;;;;14.70;2.78;;;;;;;8.57;88.69;102105.50;5071510;28;20079;-74
2022/01/30 00:09:18;;;;;;;7.30;1.25;;;;;;;8.47;89.73;102103.25;5070255;28;20056;-75
2022/01/30 00:11:50;;;;;;;23.10;3.00;;;;;;;8.54;89.69;102108.97;5066551;28;20127;-75
2022/01/30 00:14:18;;;;;;;29.70;4.35;;;;;;;8.52;89.88;102118.75;5069067;28;20053;-76
2022/01/30 00:16:45;;;;;;;9.27;1.30;;;;;;;8.42;90.24;102120.06;5068988;28;20059;-74
2022/01/30 00:19:24;;;;;;;9.25;2.72;;;;;;;8.39;90.17;102119.94;5068841;28;20126;-73
2022/01/30 00:22:01;;;;;;;16.52;3.35;;;;;;;8.43;89.80;102126.38;5068735;28;20541;-74
2022/01/30 00:24:43;;;;;;;17.80;4.32;;;;;;;8.47;89.88;102128.06;5070537;28;20063;-74
2022/01/30 00:27:16;;;;;;;26.55;3.72;;;;;;;8.42;90.32;102135.78;5070671;28;20052;-75
2022/01/30 00:29:42;;;;;;;16.02;3.33;;;;;;;8.42;90.59;102141.31;5070065;28;20045;-73
2022/01/30 00:32:09;;;;;;;13.35;2.55;;;;;;;8.35;90.13;102130.88;5067731;28;20475;-74
2022/01/30 00:34:55;;;;;;;26.85;4.35;;;;;;;8.34;89.74;102140.31;5067568;28;20052;-75
2022/01/30 00:37:22;;;;;;;16.48;3.97;;;;;;;8.23;90.15;102130.88;5069480;28;20402;-77
2022/01/30 00:39:49;;;;;;;15.27;3.40;;;;;;;8.22;90.31;102128.47;5067543;28;20075;-76
2022/01/30 00:42:16;;;;;;;6.60;1.08;;;;;;;8.15;89.60;102128.22;5083194;28;20048;-75
2022/01/30 00:44:43;;;;;;;26.70;4.57;;;;;;;8.11;88.19;102122.63;5068381;28;20040;-74
2022/01/30 00:47:13;;;;;;;21.20;3.30;;;;;;;8.19;87.92;102127.19;5068997;28;20056;-74
2022/01/30 00:49:40;;;;;;;25.85;4.20;;;;;;;8.14;88.88;102130.19;5068770;28;20122;-77
2022/01/30 00:52:10;;;;;;;28.95;4.10;;;;;;;8.09;88.60;102127.66;5063360;28;20080;-74
2022/01/30 00:54:37;;;;;;;22.15;3.13;;;;;;;7.95;88.24;102132.72;5069450;28;20123;-76
2022/01/30 00:57:04;;;;;;;4.63;1.65;;;;;;;7.90;87.75;102142.03;5068724;28;20138;-76
2022/01/30 00:59:31;;;;;;;15.65;3.05;;;;;;;8.00;86.31;102140.75;5069722;28;20199;-75
2022/01/30 01:01:57;;;;;;;7.60;1.83;;;;;;;7.94;85.42;102136.63;5066878;28;20429;-75
2022/01/30 01:04:24;;;;;;;27.02;3.20;;;;;;;7.98;86.06;102143.06;5066570;28;20059;-75
2022/01/30 01:06:51;;;;;;;23.13;3.85;;;;;;;7.97;85.97;102142.25;5083863;28;20143;-77
2022/01/30 01:09:21;;;;;;;26.67;4.03;;;;;;;7.96;85.98;102148.09;5067043;28;20048;-75
2022/01/30 01:12:24;;;;;;;18.17;2.88;;;;;;;7.93;86.26;102135.00;5067266;28;20497;-75
2022/01/30 01:25:38;;;;;;;18.63;3.97;;;;;;;7.88;87.58;102135.25;5068211;28;20059;-76
2022/01/30 01:28:04;;;;;;;18.35;3.72;;;;;;;7.82;88.45;102136.63;5067114;28;20437;-74
2022/01/30 01:30:31;;;;;;;27.85;4.32;;;;;;;7.79;89.52;102138.13;5064167;28;20060;-74
2022/01/30 01:33:01;;;;;;;17.42;3.00;;;;;;;7.76;90.08;102141.56;5067546;28;20050;-75
2022/01/30 01:35:28;;;;;;;19.15;3.65;;;;;;;7.77;89.85;102148.69;5073650;28;20121;-74
2022/01/30 01:37:55;;;;;;;26.55;4.40;;;;;;;7.69;90.77;102133.06;5066372;28;20140;-76
2022/01/30 01:40:22;;;;;;;16.65;3.15;;;;;;;7.64;91.16;102138.81;5074471;28;20044;-74
2022/01/30 01:42:48;;;;;;;30.25;4.20;;;;;;;7.62;91.45;102137.53;5067699;28;20098;-75
2022/01/30 01:45:19;;;;;;;10.85;1.55;;;;;;;7.47;92.04;102130.78;5065143;28;20072;-75
2022/01/30 01:47:46;;;;;;;9.23;1.90;;;;;;;7.49;92.25;102133.16;5066844;28;20167;-76
2022/01/30 01:50:27;;;;;;;10.38;2.80;;;;;;;7.47;91.99;102133.53;5067615;28;20044;-74
2022/01/30 01:52:53;;;;;;;16.92;2.40;;;;;;;7.50;92.15;102143.84;5067162;28;20048;-75
2022/01/30 01:55:20;;;;;;;28.65;4.93;;;;;;;7.52;92.21;102140.75;5068709;28;20056;-75
2022/01/30 01:57:46;;;;;;;33.60;5.28;;;;;;;7.57;92.06;102146.03;5059760;28;20052;-76
2022/01/30 02:00:14;;;;;;;32.75;4.38;;;;;;;7.55;92.04;102156.59;5067518;28;20423;-75
2022/01/30 02:02:40;;;;;;;12.73;2.03;;;;;;;7.50;92.24;102173.34;5062259;28;20059;-74
2022/01/30 02:05:08;;;;;;;33.45;4.65;;;;;;;7.59;92.08;102174.84;5065135;28;20159;-76
2022/01/30 02:11:06;;;;;;;32.60;5.50;;;;;;;7.65;92.27;102161.66;5065478;28;20052;-74
2022/01/30 02:26:55;;;;;;;21.48;4.32;;;;;;;7.54;92.17;102188.84;5069152;28;20497;-76
2022/01/30 02:29:22;;;;;;;26.55;4.00;;;;;;;7.52;92.11;102195.81;5067220;28;20498;-74
2022/01/30 02:31:49;;;;;;;24.60;4.18;;;;;;;7.50;92.59;102190.66;5066930;28;20572;-75
2022/01/30 02:34:15;;;;;;;23.15;3.85;;;;;;;7.43;93.07;102200.66;5073018;28;20056;-75
2022/01/30 02:36:48;;;;;;;16.55;3.47;;;;;;;7.28;93.82;102196.59;5064254;28;20044;-76
2022/01/30 02:39:16;;;;;;;24.67;4.13;;;;;;;7.42;92.95;102202.59;5068106;28;20056;-74
2022/01/30 02:41:43;;;;;;;24.73;3.80;;;;;;;7.29;93.79;102206.44;5064532;28;20497;-75
2022/01/30 02:46:52;;;;;;;28.63;4.07;;;;;;;7.23;94.21;102202.28;5071480;28;20040;-74
2022/01/30 02:52:05;;;;;;;8.40;1.08;;;;;;;7.08;96.29;102211.19;5072221;28;20413;-75
2022/01/30 02:54:32;;;;;;;8.85;1.17;;;;;;;7.09;96.43;102214.75;5071361;28;20048;-75
2022/01/30 02:56:59;;;;;;;33.60;5.60;;;;;;;7.08;96.90;102211.19;5073460;28;20127;-75
2022/01/30 02:59:26;;;;;;;31.33;5.03;;;;;;;7.08;96.88;102219.44;5070365;28;20055;-75
2022/01/30 03:01:53;;;;;;;25.20;4.25;;;;;;;6.92;97.95;102215.69;5067962;28;20705;-76
2022/01/30 03:04:20;;;;;;;15.48;2.40;;;;;;;6.93;98.32;102202.75;5072172;28;20056;-74
2022/01/30 03:06:47;;;;;;;23.85;4.43;;;;;;;7.04;98.07;102198.44;5071479;28;20060;-76
2022/01/30 03:09:14;;;;;;;22.20;4.30;;;;;;;7.02;98.02;102189.72;5069913;28;20048;-75
2022/01/30 03:11:40;;;;;;;32.60;3.45;;;;;;;6.89;98.93;102186.09;5068176;28;20044;-75
2022/01/30 03:14:07;;;;;;;7.53;1.13;;;;;;;6.85;100.00;102203.63;5068843;28;20052;-75
2022/01/30 03:16:33;;;;;;;14.18;4.00;;;;;;;6.76;100.00;102203.69;5069646;28;20052;-75
2022/01/30 03:19:01;;;;;;;28.75;4.43;;;;;;;6.74;100.00;102205.16;5072291;28;20045;-75
2022/01/30 03:21:27;;;;;;;8.52;1.92;;;;;;;6.61;100.00;102203.50;5069453;28;20090;-76
2022/01/30 03:23:54;;;;;;;12.80;3.42;;;;;;;6.63;100.00;102202.03;5070653;28;20142;-74
2022/01/30 03:26:21;;;;;;;18.40;2.67;;;;;;;6.54;100.00;102200.44;5071220;28;20124;-74
2022/01/30 03:28:50;;;;;;;5.05;1.55;;;;;;;6.65;100.00;102207.19;5069176;28;20049;-74
2022/01/30 03:31:19;;;;;;;25.70;3.83;;;;;;;6.67;100.00;102202.13;5071332;28;20147;-74
2022/01/30 03:33:46;;;;;;;28.10;4.28;;;;;;;6.74;100.00;102216.16;5073018;28;20052;-74
2022/01/30 03:36:13;;;;;;;13.65;2.75;;;;;;;6.69;100.00;102208.94;5076987;28;20048;-76
2022/01/30 03:38:39;;;;;;;6.70;1.85;;;;;;;6.85;100.00;102222.91;5070263;28;20056;-74
2022/01/30 03:41:06;;;;;;;14.43;3.22;;;;;;;6.84;99.73;102213.00;5070662;28;20159;-74
2022/01/30 03:43:32;;;;;;;12.30;2.47;;;;;;;6.86;99.66;102217.06;5071223;28;20040;-75
2022/01/30 03:45:59;;;;;;;14.18;2.33;;;;;;;6.90;99.84;102222.69;5086277;28;20524;-74
2022/01/30 03:48:25;;;;;;;3.47;1.15;;;;;;;6.84;99.30;102222.06;5070258;28;20052;-74
2022/01/30 03:50:52;;;;;;;21.55;3.55;;;;;;;6.89;99.91;102218.31;5070517;28;20406;-73
2022/01/30 03:53:18;;;;;;;13.35;2.50;;;;;;;6.79;100.00;102224.22;5070770;28;20127;-73
2022/01/30 03:55:45;;;;;;;4.80;1.88;;;;;;;6.74;100.00;102227.97;5070819;28;20119;-73
2022/01/30 03:58:12;;;;;;;12.80;2.08;;;;;;;6.63;100.00;102221.28;5070483;28;20044;-75
2022/01/30 04:00:38;;;;;;;12.82;2.80;;;;;;;6.61;100.00;102233.75;5069473;28;20576;-74
2022/01/30 04:03:06;;;;;;;9.68;2.65;;;;;;;6.55;100.00;102226.84;5069589;28;20122;-76
2022/01/30 04:05:32;;;;;;;10.38;2.22;;;;;;;6.48;100.00;102232.84;5070790;28;20059;-74
2022/01/30 04:08:02;;;;;;;19.15;2.75;;;;;;;6.47;100.00;102224.94;5070921;28;20135;-74
2022/01/30 04:10:31;;;;;;;19.10;3.38;;;;;;;6.42;100.00;102233.38;5069775;28;20135;-74
2022/01/30 04:12:58;;;;;;;11.27;2.17;;;;;;;6.47;100.00;102233.19;5069606;28;20539;-77
2022/01/30 04:15:25;;;;;;;31.02;5.38;;;;;;;6.46;100.00;102218.63;5075801;28;20060;-74
2022/01/30 04:17:52;;;;;;;7.93;1.92;;;;;;;6.37;100.00;102230.81;5079423;28;20416;-76
2022/01/30 04:20:19;;;;;;;25.52;3.83;;;;;;;6.44;100.00;102236.59;5082581;28;20453;-75
2022/01/30 04:22:45;;;;;;;24.75;3.78;;;;;;;6.47;100.00;102247.75;5070865;28;20040;-75
2022/01/30 04:25:12;;;;;;;17.17;2.60;;;;;;;6.42;100.00;102255.38;5070520;28;20686;-75
2022/01/30 04:27:38;;;;;;;28.70;4.68;;;;;;;6.49;100.00;102253.72;5070039;28;20048;-76
2022/01/30 04:30:07;;;;;;;12.20;2.25;;;;;;;6.51;100.00;102264.41;5070985;28;20072;-75
2022/01/30 04:32:34;;;;;;;9.10;2.28;;;;;;;6.45;100.00;102260.22;5068557;28;20051;-74
2022/01/30 04:35:10;;;;;;;26.45;4.55;;;;;;;6.51;100.00;102265.19;5082538;28;20067;-76
2022/01/30 04:37:53;;;;;;;20.52;4.13;;;;;;;6.49;100.00;102258.41;5070384;28;20055;-76
2022/01/30 04:56:53;;;;;;;16.58;3.50;;;;;;;6.61;100.00;102281.31;5076493;28;20060;-75
2022/01/30 05:05:10;;;;;;;23.83;4.05;;;;;;;6.63;100.00;102281.78;5062634;28;20048;-75
2022/01/30 05:07:38;;;;;;;12.15;3.33;;;;;;;6.42;100.00;102256.19;5067927;28;20057;-76
2022/01/30 05:10:06;;;;;;;23.50;2.83;;;;;;;6.66;100.00;102272.06;5080253;28;20062;-74
2022/01/30 05:12:44;;;;;;;21.15;4.13;;;;;;;6.70;100.00;102281.25;5068490;28;20074;-73
2022/01/30 05:15:11;;;;;;;22.75;3.95;;;;;;;6.69;100.00;102288.72;5072535;28;20135;-74
2022/01/30 05:17:38;;;;;;;14.82;2.67;;;;;;;6.61;100.00;102286.00;5070097;28;20050;-76
2022/01/30 05:20:05;;;;;;;15.50;2.80;;;;;;;6.63;100.00;102294.72;5069482;28;20051;-74
2022/01/30 05:22:32;;;;;;;22.92;3.78;;;;;;;6.62;100.00;102293.13;5068538;28;20504;-74
2022/01/30 05:24:59;;;;;;;13.73;2.22;;;;;;;6.45;100.00;102287.72;5065010;28;20139;-73
2022/01/30 05:27:26;;;;;;;21.38;3.42;;;;;;;6.47;100.00;102291.75;5068897;28;20075;-74
2022/01/30 05:29:53;;;;;;;23.10;3.58;;;;;;;6.46;100.00;102290.13;5068099;28;20055;-74
2022/01/30 05:32:20;;;;;;;8.05;1.38;;;;;;;6.41;100.00;102304.06;5068951;28;20040;-76
2022/01/30 05:34:46;;;;;;;10.55;1.95;;;;;;;6.40;100.00;102296.13;5076340;28;20063;-75
2022/01/30 05:37:17;;;;;;;6.68;1.90;;;;;;;6.39;100.00;102295.34;5069272;28;20048;-76
2022/01/30 05:39:44;;;;;;;3.50;1.88;;;;;;;6.43;100.00;102289.97;5076373;28;20050;-75
2022/01/30 05:42:12;;;;;;;17.23;2.92;;;;;;;6.55;100.00;102303.84;5068912;28;20135;-76
2022/01/30 05:44:50;;;;;;;16.23;3.65;;;;;;;6.43;100.00;102301.78;5069499;28;20055;-75
2022/01/30 05:47:28;;;;;;;14.75;2.22;;;;;;;6.65;100.00;102314.47;5068914;28;20040;-76
2022/01/30 05:49:55;;;;;;;3.05;0.93;;;;;;;6.59;100.00;102310.28;5069233;28;20353;-76
2022/01/30 05:52:22;;;;;;;11.98;2.05;;;;;;;6.61;99.66;102305.28;5068957;28;20048;-75
2022/01/30 05:54:48;;;;;;;27.20;4.30;;;;;;;6.69;99.35;102318.97;5069632;28;20163;-74
2022/01/30 05:57:15;;;;;;;28.05;2.75;;;;;;;6.65;99.53;102329.00;5069005;28;20102;-74
2022/01/30 05:59:41;;;;;;;17.75;3.30;;;;;;;6.68;98.88;102333.84;5068870;28;20083;-75
2022/01/30 06:02:08;;;;;;;20.52;3.03;;;;;;;6.66;99.63;102338.88;5068704;28;20046;-75
2022/01/30 06:04:34;;;;;;;34.60;4.18;;;;;;;6.71;99.52;102335.94;5068800;28;20056;-74
2022/01/30 06:07:01;;;;;;;22.27;3.03;;;;;;;6.65;99.46;102336.47;5071821;28;20064;-74
2022/01/30 06:09:28;;;;;;;3.58;1.05;;;;;;;6.63;99.28;102335.97;5069080;28;20052;-75
2022/01/30 06:11:54;;;;;;;17.02;2.30;;;;;;;6.59;99.58;102330.34;5067755;28;20488;-75
2022/01/30 06:14:22;;;;;;;5.90;1.67;;;;;;;6.61;99.66;102339.06;5066514;28;20049;-74
2022/01/30 06:16:49;;;;;;;12.77;1.98;;;;;;;6.56;99.61;102343.94;5071906;28;20056;-75
2022/01/30 06:19:19;;;;;;;20.55;2.47;;;;;;;6.60;99.45;102344.88;5068360;28;20718;-75
2022/01/30 06:21:46;;;;;;;9.65;2.03;;;;;;;6.49;100.00;102346.41;5072675;28;20126;-75
2022/01/30 06:24:12;;;;;;;20.63;2.55;;;;;;;6.52;100.00;102354.00;5077828;28;20129;-76
2022/01/30 06:26:39;;;;;;;19.67;3.00;;;;;;;6.46;100.00;102349.81;5069820;28;20058;-75
2022/01/30 06:29:06;;;;;;;4.97;1.85;;;;;;;6.46;100.00;102355.31;5068902;28;20173;-75
2022/01/30 06:31:32;;;;;;;9.98;3.42;;;;;;;6.38;100.00;102347.91;5068734;28;20146;-75
2022/01/30 06:33:59;;;;;;;8.32;1.95;;;;;;;6.31;100.00;102347.63;5070895;28;20052;-77
2022/01/30 06:36:26;;;;;;;5.35;0.75;;;;;;;6.26;100.00;102356.03;5072459;28;20053;-76
2022/01/30 06:38:53;;;;;;;17.95;2.75;;;;;;;6.24;100.00;102358.31;5070302;28;20049;-74
2022/01/30 06:41:20;;;;;;;3.90;1.38;;;;;;;6.14;100.00;102359.47;5071560;28;20151;-75
2022/01/30 06:43:46;;;;;;;3.92;1.35;;;;;;;6.12;100.00;102363.69;5068141;28;20045;-75
2022/01/30 06:46:15;;;;;;;1.75;1.20;;;;;;;6.02;100.00;102362.09;5068907;28;21599;-75
2022/01/30 06:48:42;;;;;;;7.13;2.25;;;;;;;6.00;100.00;102369.06;5084909;28;20056;-77
2022/01/30 06:51:08;;;;;;;12.32;2.65;;;;;;;5.99;100.00;102372.94;5071609;28;20072;-75
2022/01/30 06:53:35;;;;;;;20.88;2.75;;;;;;;5.91;100.00;102385.56;5068680;28;20683;-74
2022/01/30 06:56:02;;;;;;;12.85;2.45;;;;;;;5.92;100.00;102383.59;5068169;28;20055;-75
2022/01/30 06:58:28;;;;;;;13.75;2.78;;;;;;;5.89;100.00;102384.25;5068611;28;20150;-75
2022/01/30 07:00:55;;;;;;;22.02;4.50;;;;;;;5.89;100.00;102384.25;5068596;28;20076;-74
2022/01/30 07:03:21;;;;;;;21.27;4.05;;;;;;;5.89;100.00;102395.25;5070635;28;20113;-76
2022/01/30 07:05:48;;;;;;;19.10;4.10;;;;;;;5.91;100.00;102412.22;5066323;28;20052;-76
2022/01/30 07:08:14;;;;;;;20.80;3.88;;;;;;;5.86;100.00;102409.63;5067897;28;20055;-74
2022/01/30 07:10:41;;;;;;;28.30;4.00;;;;;;;5.85;100.00;102405.28;5066980;28;20280;-75
2022/01/30 07:13:10;;;;;;;15.52;3.13;;;;;;;5.80;100.00;102417.19;5068043;28;20087;-74
2022/01/30 07:15:36;;;;;;;27.20;4.75;;;;;;;5.82;100.00;102428.72;5072603;28;20084;-75
2022/01/30 07:18:03;;;;;;;5.10;1.00;;;;;;;5.79;100.00;102429.31;5068643;28;20055;-76
2022/01/30 07:20:29;;;;;;;15.70;4.03;;;;;;;5.81;100.00;102432.59;5067505;28;20063;-74
2022/01/30 07:22:56;;;;;;;20.33;3.05;;;;;;;5.82;100.00;102438.88;5068153;28;20127;-74
2022/01/30 07:25:23;;;;;;;4.43;1.67;;;;;;;5.84;100.00;102436.63;5070417;28;20048;-74
2022/01/30 07:27:49;;;;;;;11.45;1.85;;;;;;;5.86;100.00;102446.16;5071136;28;20567;-74
2022/01/30 07:30:16;;;;;;;22.67;3.72;;;;;;;5.90;100.00;102440.84;5073435;28;20136;-75
2022/01/30 07:32:42;;;;;;;22.27;4.50;;;;;;;5.85;100.00;102439.06;5073700;28;20082;-74
2022/01/30 07:35:09;;;;;;;21.17;3.38;;;;;;;5.82;100.00;102444.38;5073591;28;20049;-76
2022/01/30 07:37:36;;;;;;;16.48;3.38;;;;;;;5.83;100.00;102445.97;5071116;28;20527;-75
2022/01/30 07:40:04;;;;;;;17.45;2.65;;;;;;;5.74;100.00;102426.72;5063616;28;20835;-74
2022/01/30 07:42:33;;;;;;;10.70;2.28;;;;;;;5.83;100.00;102443.22;5071078;28;20040;-75
2022/01/30 07:44:59;;;;;;;20.92;3.60;;;;;;;5.87;100.00;102446.97;5071561;28;20516;-75
2022/01/30 07:47:26;;;;;;;20.42;3.63;;;;;;;5.90;100.00;102449.09;5069614;28;20052;-77
2022/01/30 07:49:52;;;;;;;18.08;3.08;;;;;;;5.87;100.00;102452.47;5074583;28;20049;-75
2022/01/30 07:52:20;;;;;;;28.77;4.00;;;;;;;5.93;100.00;102451.97;5069897;28;20051;-74
2022/01/30 07:54:47;;;;;;;22.27;4.05;;;;;;;5.93;100.00;102459.41;5067396;28;20600;-74
2022/01/30 07:57:17;;;;;;;20.30;4.28;;;;;;;5.92;100.00;102466.03;5065788;28;20501;-75
2022/01/30 07:59:43;;;;;;;11.98;1.92;;;;;;;5.82;100.00;102466.34;5071545;28;20084;-74
2022/01/30 08:02:10;;;;;;;11.80;2.13;;;;;;;5.81;100.00;102476.56;5073943;28;20041;-76
2022/01/30 08:04:37;;;;;;;21.90;3.03;;;;;;;5.84;100.00;102477.84;5079577;28;20389;-74
2022/01/30 08:07:04;;;;;;;26.65;2.88;;;;;;;5.85;100.00;102482.19;5073727;28;20048;-77
2022/01/30 08:09:35;;;;;;;13.10;2.45;;;;;;;5.86;100.00;102486.56;5069234;28;20060;-74
2022/01/30 08:12:02;;;;;;;11.40;3.08;;;;;;;5.88;100.00;102487.03;5068337;28;20472;-73
2022/01/30 08:14:29;;;;;;;22.75;5.05;;;;;;;5.93;100.00;102484.13;5068468;28;20066;-74
2022/01/30 08:16:55;;;;;;;23.02;4.32;;;;;;;5.96;100.00;102481.56;5070071;28;20044;-70
2022/01/30 08:19:24;;;;;;;2.63;1.95;;;;;;;6.02;100.00;102487.69;5070362;28;20049;-67
2022/01/30 08:21:52;;;;;;;3.63;1.20;;;;;;;5.97;100.00;102483.16;5069565;28;20052;-74
2022/01/30 08:24:22;;;;;;;13.00;3.30;;;;;;;5.97;100.00;102485.13;5068236;28;20139;-73
2022/01/30 08:26:48;;;;;;;17.83;4.35;;;;;;;6.00;100.00;102485.25;5069409;28;20057;-71
2022/01/30 08:29:15;;;;;;;21.50;3.28;;;;;;;6.04;100.00;102488.97;5064186;28;20040;-72
2022/01/30 08:31:41;;;;;;;6.55;1.00;;;;;;;6.13;100.00;102492.53;5068135;28;20059;-72
2022/01/30 08:34:08;;;;;;;18.38;3.28;;;;;;;6.27;100.00;102492.34;5073711;28;20127;-72
2022/01/30 08:36:35;;;;;;;12.40;1.83;;;;;;;6.27;100.00;102489.59;5068097;28;20040;-73
2022/01/30 08:39:02;;;;;;;21.42;3.58;;;;;;;6.39;100.00;102492.50;5073168;28;20062;-73
2022/01/30 08:41:28;;;;;;;11.05;2.00;;;;;;;6.40;100.00;102494.09;5072697;28;20048;-72
2022/01/30 08:43:55;;;;;;;24.23;4.78;;;;;;;6.59;100.00;102486.31;5068881;28;20072;-72
2022/01/30 08:46:21;;;;;;;18.77;2.92;;;;;;;6.70;100.00;102487.56;5067705;28;20056;-71
2022/01/30 08:48:48;;;;;;;26.15;3.53;;;;;;;6.81;100.00;102484.13;5068228;28;20044;-72
2022/01/30 08:51:15;;;;;;;23.17;3.72;;;;;;;6.94;100.00;102485.03;5068351;28;20509;-73
2022/01/30 08:53:41;;;;;;;13.90;2.60;;;;;;;7.00;99.06;102486.47;5069172;28;20075;-74
2022/01/30 08:56:08;;;;;;;19.50;3.15;;;;;;;7.08;98.17;102471.88;5067454;28;20285;-71
2022/01/30 08:58:35;;;;;;;10.43;1.77;;;;;;;7.04;97.63;102476.41;5058736;28;20053;-73
2022/01/30 09:01:02;;;;;;;19.33;3.70;;;;;;;7.06;98.23;102477.69;5067647;28;20122;-76
2022/01/30 09:03:28;;;;;;;14.50;2.38;;;;;;;7.03;98.57;102483.88;5063587;28;20078;-74
2022/01/30 09:05:55;;;;;;;15.50;2.55;;;;;;;6.98;98.45;102486.00;5068296;28;20417;-73
2022/01/30 09:08:26;;;;;;;26.42;3.53;;;;;;;6.96;99.18;102497.31;5068222;28;20049;-74
2022/01/30 09:10:54;;;;;;;9.50;2.00;;;;;;;6.99;98.72;102488.41;5068238;28;20133;-73
2022/01/30 09:13:21;;;;;;;22.58;4.07;;;;;;;6.96;99.03;102496.53;5067273;28;20056;-74
2022/01/30 09:15:47;;;;;;;24.10;3.80;;;;;;;7.10;99.03;102486.13;5068866;28;20125;-76
2022/01/30 09:18:17;;;;;;;8.68;2.80;;;;;;;7.01;99.56;102471.56;5066019;28;20429;-73
2022/01/30 09:20:43;;;;;;;8.20;2.05;;;;;;;7.06;99.71;102476.91;5068333;28;20052;-73
2022/01/30 09:23:11;;;;;;;5.85;2.22;;;;;;;7.03;99.22;102474.81;5068241;28;20048;-73
2022/01/30 09:25:43;;;;;;;15.65;3.00;;;;;;;7.04;99.11;102471.72;5083144;28;20074;-72
2022/01/30 09:28:09;;;;;;;22.65;4.45;;;;;;;7.18;98.69;102474.25;5069230;28;20071;-74
2022/01/30 09:30:36;;;;;;;30.60;4.68;;;;;;;7.05;98.31;102475.28;5064950;28;20048;-74
2022/01/30 09:33:02;;;;;;;6.50;1.65;;;;;;;7.11;97.83;102471.19;5067973;28;20049;-73
2022/01/30 09:35:29;;;;;;;17.92;3.15;;;;;;;7.26;97.61;102471.44;5076921;28;20054;-72
2022/01/30 09:37:57;;;;;;;8.60;2.88;;;;;;;7.33;96.40;102468.19;5066334;28;20568;-77
2022/01/30 09:40:24;;;;;;;4.00;1.65;;;;;;;7.37;95.72;102469.13;5067367;28;20054;-72
2022/01/30 09:42:51;;;;;;;4.85;2.08;;;;;;;7.35;95.63;102465.88;5066914;28;20135;-73
2022/01/30 09:45:20;;;;;;;21.60;4.10;;;;;;;7.49;95.66;102459.00;5083023;28;20163;-73
2022/01/30 09:47:48;;;;;;;16.75;3.50;;;;;;;7.50;95.34;102468.84;5068176;28;20155;-73
2022/01/30 09:50:17;;;;;;;24.88;3.75;;;;;;;7.64;95.24;102471.38;5067107;28;20075;-73
2022/01/30 09:52:44;;;;;;;21.63;3.15;;;;;;;7.67;94.23;102474.25;5067167;28;20044;-73
2022/01/30 09:55:12;;;;;;;22.95;4.45;;;;;;;7.69;92.09;102484.94;5068454;28;20052;-73
2022/01/30 09:57:40;;;;;;;19.50;3.42;;;;;;;7.94;92.43;102501.25;5067627;28;20055;-74
2022/01/30 10:00:08;;;;;;;14.60;2.13;;;;;;;7.92;90.03;102492.53;5067055;28;20059;-73
2022/01/30 10:02:35;;;;;;;11.25;1.98;;;;;;;8.02;87.03;102494.91;5065545;28;20547;-74
2022/01/30 10:05:03;;;;;;;11.13;2.40;;;;;;;8.12;86.86;102499.19;5067660;28;20102;-74
2022/01/30 10:07:55;;;;;;;14.52;2.85;;;;;;;8.08;86.69;102495.50;5067975;28;20052;-73
2022/01/30 10:10:24;;;;;;;22.25;3.47;;;;;;;8.10;86.42;102504.22;5067994;28;20052;-73
2022/01/30 10:13:07;;;;;;;24.83;4.40;;;;;;;8.27;86.26;102508.81;5067504;28;20704;-73
2022/01/30 10:15:52;;;;;;;17.20;2.97;;;;;;;8.17;86.45;102495.41;5066796;28;20053;-73
2022/01/30 10:18:19;;;;;;;;;;;;;;;8.10;86.11;102503.44;5064732;28;20148;-76
2022/01/30 10:20:46;;;;;;;25.55;4.57;;;;;;;8.14;86.11;102510.69;5066528;28;19967;-73
2022/01/30 10:23:13;;;;;;;30.13;4.30;;;;;;;8.27;85.67;102504.09;5067806;28;20135;-73
2022/01/30 10:25:53;;;;;;;14.20;2.50;;;;;;;8.18;82.95;102511.63;5067177;28;20056;-73
2022/01/30 10:28:31;;;;;;;28.02;4.45;;;;;;;8.44;82.36;102514.16;5057372;28;20047;-74
2022/01/30 10:31:01;;;;;;;23.67;4.32;;;;;;;8.47;80.56;102508.75;5062006;28;20057;-77
2022/01/30 10:33:45;;;;;;;37.42;5.07;;;;;;;8.65;81.17;102506.63;5062594;28;20117;-74
2022/01/30 10:36:18;;;;;;;25.27;3.85;;;;;;;8.52;78.19;102521.53;5057352;28;20173;-75
2022/01/30 10:38:49;;;;;;;18.50;3.88;;;;;;;8.91;77.47;102519.00;5059161;28;20045;-77
2022/01/30 10:41:20;;;;;;;7.32;1.92;;;;;;;9.02;74.42;102513.84;5055505;28;20144;-74
2022/01/30 10:44:01;;;;;;;25.58;4.45;;;;;;;9.08;73.72;102521.53;5052929;28;20131;-74
2022/01/30 10:46:28;;;;;;;18.73;3.90;;;;;;;9.31;73.85;102521.91;5047670;28;20063;-75
2022/01/30 10:49:07;;;;;;;16.33;3.15;;;;;;;9.48;73.34;102516.94;5058992;28;20049;-76
2022/01/30 10:51:34;;;;;;;32.55;4.72;;;;;;;9.50;72.17;102513.84;5057660;28;20052;-73
2022/01/30 10:54:11;;;;;;;12.25;2.83;;;;;;;9.66;70.58;102512.78;5054140;28;20051;-73
2022/01/30 10:56:39;;;;;;;14.32;3.33;;;;;;;9.78;69.02;102507.25;5053961;28;20056;-76
2022/01/30 10:59:15;;;;;;;17.05;2.95;;;;;;;9.68;66.23;102506.91;5072837;28;20045;-73
2022/01/30 11:01:45;;;;;;;;;;;;;;;10.08;66.57;102510.53;5062982;28;20048;-76
2022/01/30 11:04:31;;;;;;;17.20;3.97;;;;;;;10.51;64.70;102510.59;5066088;28;19924;-75
2022/01/30 11:06:59;;;;;;;;;;;;;;;10.19;61.97;102514.41;5061929;28;20048;-75
2022/01/30 11:09:32;;;;;;;21.50;4.22;;;;;;;10.33;61.93;102515.63;5065111;28;19924;-74
2022/01/30 11:12:08;;;;;;;25.83;4.70;;;;;;;10.60;63.32;102516.78;5060709;28;20381;-73
2022/01/30 11:14:53;;;;;;;25.95;3.60;;;;;;;9.98;59.87;102513.75;5065439;28;20113;-74
2022/01/30 11:17:22;;;;;;;37.30;6.63;;;;;;;10.50;63.02;102507.00;5067304;28;20048;-75
2022/01/30 11:19:54;;;;;;;26.80;4.50;;;;;;;10.35;59.89;102513.31;5068524;28;20040;-74
2022/01/30 11:22:22;;;;;;;27.83;4.30;;;;;;;10.25;59.47;102513.81;5066049;28;20052;-75
2022/01/30 11:25:00;;;;;;;32.35;5.10;;;;;;;10.47;60.73;102527.06;5063699;28;20053;-77
2022/01/30 11:27:27;;;;;;;30.75;6.28;;;;;;;10.24;58.48;102516.94;5067161;28;20531;-75
2022/01/30 11:29:54;;;;;;;20.17;3.50;;;;;;;10.63;58.50;102518.03;5065158;28;20110;-74
2022/01/30 11:32:22;;;;;;;23.40;4.38;;;;;;;10.83;58.35;102522.53;5067146;28;20057;-75
2022/01/30 11:34:59;;;;;;;21.15;4.57;;;;;;;10.90;58.74;102517.16;5066269;28;20064;-74
2022/01/30 11:37:28;;;;;;;35.53;5.80;;;;;;;10.53;58.46;102506.28;5056313;28;20052;-75
2022/01/30 11:39:55;;;;;;;22.55;3.75;;;;;;;10.26;56.89;102504.34;5061675;28;20055;-77
2022/01/30 11:42:27;;;;;;;21.48;4.32;;;;;;;10.42;59.41;102510.75;5060833;28;20149;-73
2022/01/30 11:45:00;;;;;;;28.73;4.25;;;;;;;10.57;60.65;102487.03;5060362;28;20060;-75
2022/01/30 11:48:00;;;;;;;11.35;2.78;;;;;;;12.54;54.98;102492.41;5067158;28;20056;-76
2022/01/30 11:50:29;;;;;;;18.88;3.53;;;;;;;11.95;53.89;102486.44;5076081;28;20167;-74
2022/01/30 11:53:15;;;;;;;24.65;4.30;;;;;;;12.37;56.07;102478.97;5064145;28;20060;-75
2022/01/30 11:56:02;;;;;;;38.60;5.15;;;;;;;12.27;52.92;102482.34;5074593;28;20110;-76
2022/01/30 11:58:45;;;;;;;28.48;5.82;;;;;;;11.40;53.97;102473.69;5063233;28;20071;-74
2022/01/30 12:01:24;;;;;;;16.33;3.55;;;;;;;11.03;54.74;102464.09;5069079;28;20420;-73
2022/01/30 12:03:53;;;;;;;25.48;5.15;;;;;;;12.54;53.92;102467.41;5062366;28;20045;-75
2022/01/30 12:06:19;;;;;;;23.52;5.10;;;;;;;14.44;51.77;102476.63;5058335;28;20102;-75
2022/01/30 12:08:57;;;;;;;8.20;1.95;;;;;;;14.02;44.62;102467.75;5067129;28;20048;-72
2022/01/30 12:11:39;;;;;;;16.55;4.38;;;;;;;13.18;47.39;102475.69;5063966;28;20141;-73
2022/01/30 12:14:30;;;;;;;17.58;3.47;;;;;;;12.28;48.86;102459.78;5077208;28;20116;-76
2022/01/30 12:17:05;;;;;;;30.77;4.88;;;;;;;11.86;49.93;102466.44;5071863;28;20127;-75
2022/01/30 12:19:45;;;;;;;29.60;5.30;;;;;;;11.36;50.77;102469.22;5064529;28;20044;-77
2022/01/30 12:22:18;;;;;;;21.10;4.18;;;;;;;11.22;51.84;102479.97;5066098;28;20049;-76
2022/01/30 12:24:48;;;;;;;25.20;5.07;;;;;;;12.28;54.08;102467.28;5063955;28;20044;-74
2022/01/30 12:27:15;;;;;;;25.00;4.05;;;;;;;14.30;49.99;102471.72;5066452;28;20055;-74
2022/01/30 12:29:47;;;;;;;11.98;3.08;;;;;;;14.24;44.70;102464.09;5066753;28;20060;-75